Time;durP1;ratioP1;P1;durP2;ratioP2;P2;SDS_P1;SDS_P2;PMS_P1;PMS_P2;Temp;Humidity;BMP_temperature;BMP_pressure;BME280_temperature;BME280_humidity;BME280_pressure;Samples;Min_cycle;Max_cycle;Signal;HPM_P1;HPM_P2
2023/06/24 00:02:25;;;;;;;10.52;9.43;;;;;;;20.83;100.00;64157.44;5083136;28;20288;-76
2023/06/24 00:04:52;;;;;;;11.98;9.82;;;;;;;20.81;100.00;64152.78;5072733;28;20272;-77
2023/06/24 00:07:22;;;;;;;10.10;9.05;;;;;;;20.68;100.00;64142.81;5066423;28;20220;-77
2023/06/24 00:09:49;;;;;;;11.45;9.75;;;;;;;20.74;100.00;64150.63;5068537;28;20204;-77
2023/06/24 00:12:19;;;;;;;10.80;9.70;;;;;;;20.78;100.00;64152.22;5080711;28;20224;-77
2023/06/24 00:14:47;;;;;;;13.60;10.25;;;;;;;20.79;100.00;64153.78;5068733;28;20534;-79
2023/06/24 00:17:14;;;;;;;11.05;9.63;;;;;;;20.75;100.00;64149.59;5069290;28;20204;-77
2023/06/24 00:19:41;;;;;;;13.73;9.82;;;;;;;20.71;100.00;64145.44;5068735;28;20240;-78
2023/06/24 00:22:08;;;;;;;10.05;9.15;;;;;;;20.69;100.00;64141.28;5066504;28;20345;-78
2023/06/24 00:24:36;;;;;;;11.15;9.77;;;;;;;20.61;100.00;64132.94;5067573;28;20220;-78
2023/06/24 00:27:03;;;;;;;12.20;9.75;;;;;;;20.56;100.00;64130.31;5066025;28;20295;-76
2023/06/24 00:29:31;;;;;;;10.45;9.50;;;;;;;20.64;100.00;64138.13;5085245;28;20222;-77
2023/06/24 00:31:58;;;;;;;10.63;9.18;;;;;;;20.75;100.00;64151.66;5078896;28;20223;-78
2023/06/24 00:34:25;;;;;;;12.80;9.50;;;;;;;20.70;100.00;64144.38;5076436;28;20200;-77
2023/06/24 00:36:52;;;;;;;12.00;9.70;;;;;;;20.65;100.00;64141.75;5072493;28;20224;-77
2023/06/24 00:39:19;;;;;;;10.88;9.77;;;;;;;20.64;100.00;64138.13;5067398;28;20251;-78
2023/06/24 00:41:47;;;;;;;15.02;9.82;;;;;;;20.60;100.00;64139.63;5066264;28;20247;-77
2023/06/24 00:44:15;;;;;;;12.88;9.52;;;;;;;20.72;100.00;64148.53;5072438;28;20204;-77
2023/06/24 00:46:42;;;;;;;13.82;9.88;;;;;;;20.63;100.00;64135.03;5070150;28;20232;-78
2023/06/24 00:49:09;;;;;;;10.85;9.75;;;;;;;20.65;100.00;64141.75;5066339;28;20246;-78
2023/06/24 00:51:36;;;;;;;12.65;10.32;;;;;;;20.55;100.00;64126.66;5066265;28;20222;-78
2023/06/24 00:54:04;;;;;;;11.45;9.57;;;;;;;20.57;100.00;64133.94;5066505;28;20204;-77
2023/06/24 00:56:34;;;;;;;11.23;10.05;;;;;;;20.58;100.00;64132.41;5070380;28;20272;-77
2023/06/24 00:59:04;;;;;;;13.80;9.68;;;;;;;20.58;100.00;64131.88;5080082;28;20215;-78
2023/06/24 01:01:33;;;;;;;10.80;9.80;;;;;;;20.54;100.00;64130.28;5086363;28;20238;-78
2023/06/24 01:04:01;;;;;;;11.02;9.80;;;;;;;20.55;100.00;64128.75;5078420;28;20207;-77
2023/06/24 01:06:30;;;;;;;10.40;9.40;;;;;;;20.50;100.00;64123.53;5086229;28;20220;-78
2023/06/24 01:08:57;;;;;;;11.07;9.77;;;;;;;20.49;100.00;64120.41;5082948;28;20238;-77
2023/06/24 01:11:25;;;;;;;10.35;9.27;;;;;;;20.39;100.00;64112.03;5078177;28;20224;-78
2023/06/24 01:13:52;;;;;;;14.07;10.13;;;;;;;20.35;100.00;64108.38;5068145;28;20200;-76
2023/06/24 01:16:32;;;;;;;14.57;10.20;;;;;;;20.34;100.00;64106.81;5070770;28;20272;-77
2023/06/24 01:19:05;;;;;;;13.15;10.02;;;;;;;20.26;100.00;64098.47;5086229;28;20259;-77
2023/06/24 01:21:44;;;;;;;11.10;9.82;;;;;;;20.18;100.00;64090.09;5075833;28;20228;-77
2023/06/24 01:24:30;;;;;;;11.00;9.90;;;;;;;20.12;100.00;64081.75;5066085;28;20193;-78
2023/06/24 01:27:20;;;;;;;13.10;10.13;;;;;;;19.99;100.00;64070.25;5065518;28;20227;-77
2023/06/24 01:30:41;;;;;;;13.43;10.40;;;;;;;19.69;100.00;64039.47;5068509;28;20196;-77
2023/06/24 01:33:16;;;;;;;10.93;9.90;;;;;;;19.61;100.00;64030.63;4965619;28;20219;-78
2023/06/24 01:35:45;;;;;;;14.38;11.32;;;;;;;19.64;100.00;64036.84;4982272;28;20234;-76
2023/06/24 01:38:23;;;;;;;12.75;10.35;;;;;;;19.68;100.00;64038.44;5041946;28;20215;-78
2023/06/24 01:40:53;;;;;;;11.05;9.95;;;;;;;19.54;100.00;64024.38;5065984;28;20409;-77
2023/06/24 01:43:23;;;;;;;12.13;10.65;;;;;;;19.47;100.00;64011.38;5070470;28;20196;-77
2023/06/24 01:45:53;;;;;;;15.85;10.38;;;;;;;19.38;100.00;64010.25;5065875;28;20537;-78
2023/06/24 01:48:26;;;;;;;12.68;10.77;;;;;;;19.42;100.00;64011.84;5080857;28;20324;-77
2023/06/24 01:50:59;;;;;;;10.60;9.50;;;;;;;19.50;100.00;64017.09;5088031;28;20279;-77
2023/06/24 01:53:29;;;;;;;14.65;11.30;;;;;;;19.62;100.00;64031.66;5083650;28;20203;-77
2023/06/24 01:55:58;;;;;;;13.93;10.60;;;;;;;19.71;100.00;64041.56;5068258;28;20220;-77
2023/06/24 01:58:26;;;;;;;13.90;11.43;;;;;;;19.80;100.00;64050.44;5066562;28;20197;-78
2023/06/24 02:00:54;;;;;;;16.77;12.07;;;;;;;19.87;100.00;64058.28;5065051;28;20224;-77
2023/06/24 02:03:23;;;;;;;12.90;11.57;;;;;;;19.90;100.00;64063.44;5064732;28;20208;-77
2023/06/24 02:05:52;;;;;;;15.30;13.30;;;;;;;20.01;100.00;64072.34;5076720;28;20219;-76
2023/06/24 02:08:22;;;;;;;15.02;12.27;;;;;;;20.04;100.00;64075.47;5087902;28;20200;-79
2023/06/24 02:10:52;;;;;;;16.50;12.85;;;;;;;20.11;100.00;64085.91;5072974;28;20248;-77
2023/06/24 02:13:20;;;;;;;19.52;12.60;;;;;;;20.10;100.00;64086.91;5083732;28;20201;-78
2023/06/24 02:15:48;;;;;;;13.52;12.13;;;;;;;20.16;100.00;64093.72;5084657;28;20262;-77
2023/06/24 02:18:17;;;;;;;16.10;12.32;;;;;;;20.19;100.00;64091.69;5085163;28;20237;-77
2023/06/24 02:20:49;;;;;;;17.27;11.85;;;;;;;20.26;100.00;64101.56;5085587;28;20239;-78
2023/06/24 02:23:16;;;;;;;13.90;11.25;;;;;;;20.25;100.00;64092.78;5074722;28;20193;-77
2023/06/24 02:25:44;;;;;;;13.50;11.80;;;;;;;20.24;100.00;64098.97;5067444;28;20504;-78
2023/06/24 02:28:12;;;;;;;15.73;10.88;;;;;;;20.29;100.00;64099.00;5066458;28;20204;-77
2023/06/24 02:30:39;;;;;;;13.70;10.23;;;;;;;20.31;100.00;64106.28;5083995;28;20227;-78
2023/06/24 02:33:07;;;;;;;11.95;9.35;;;;;;;20.22;100.00;64094.28;5063503;28;20204;-78
2023/06/24 02:35:34;;;;;;;11.55;10.20;;;;;;;20.24;100.00;64098.97;5066255;28;20293;-77
2023/06/24 02:38:04;;;;;;;12.15;9.82;;;;;;;20.27;100.00;64097.44;5078575;28;20208;-78
2023/06/24 02:40:32;;;;;;;10.68;9.57;;;;;;;20.24;100.00;64096.88;5091080;28;20287;-78
2023/06/24 02:43:00;;;;;;;10.70;9.27;;;;;;;20.22;100.00;64094.28;5068704;28;20369;-77
2023/06/24 02:45:29;;;;;;;11.05;9.85;;;;;;;20.21;100.00;64096.34;5081812;28;20524;-78
2023/06/24 02:47:57;;;;;;;11.40;9.07;;;;;;;20.21;100.00;64091.19;5090058;28;20256;-77
2023/06/24 02:50:25;;;;;;;12.52;9.77;;;;;;;20.17;100.00;64094.75;5088311;28;20233;-77
2023/06/24 02:52:53;;;;;;;11.00;9.15;;;;;;;20.11;100.00;64085.91;5082010;28;20219;-77
2023/06/24 02:55:22;;;;;;;16.05;9.43;;;;;;;20.15;100.00;64086.97;5069725;28;20197;-77
2023/06/24 02:57:50;;;;;;;12.65;9.45;;;;;;;20.15;100.00;64084.91;5068507;28;20211;-77
2023/06/24 03:00:18;;;;;;;10.77;9.15;;;;;;;20.14;100.00;64086.44;5080394;28;20561;-78
2023/06/24 03:02:48;;;;;;;11.10;9.98;;;;;;;20.18;100.00;64087.53;5075717;28;20429;-77
2023/06/24 03:05:16;;;;;;;11.48;9.95;;;;;;;20.15;100.00;64079.72;5091342;28;20196;-78
2023/06/24 03:07:44;;;;;;;12.65;10.38;;;;;;;20.12;100.00;64086.44;5087871;28;20192;-77
2023/06/24 03:10:11;;;;;;;13.85;9.82;;;;;;;20.17;100.00;64087.00;5078751;28;20207;-78
2023/06/24 03:12:40;;;;;;;10.65;9.55;;;;;;;20.10;100.00;64082.28;5069357;28;20228;-77
2023/06/24 03:15:09;;;;;;;11.82;9.93;;;;;;;20.17;100.00;64089.06;5069297;28;20197;-77
2023/06/24 03:17:36;;;;;;;14.48;10.48;;;;;;;20.20;100.00;64092.72;5073446;28;20450;-78
2023/06/24 03:20:04;;;;;;;10.60;9.50;;;;;;;20.25;100.00;64095.34;5088929;28;20283;-77
2023/06/24 03:22:31;;;;;;;13.93;9.52;;;;;;;20.28;100.00;64101.06;5087885;28;20192;-78
2023/06/24 03:24:58;;;;;;;11.15;9.25;;;;;;;20.26;100.00;64101.56;5089081;28;20211;-79
2023/06/24 03:27:25;;;;;;;11.23;9.18;;;;;;;20.35;100.00;64108.38;5086603;28;20553;-78
2023/06/24 03:29:54;;;;;;;11.48;10.27;;;;;;;20.40;100.00;64115.66;5077666;28;20235;-78
2023/06/24 03:32:21;;;;;;;12.80;9.60;;;;;;;20.44;100.00;64117.25;5071251;28;20231;-77
2023/06/24 03:34:48;;;;;;;10.45;9.38;;;;;;;20.53;100.00;64124.06;5067091;28;20223;-77
2023/06/24 03:37:16;;;;;;;10.63;9.00;;;;;;;20.60;100.00;64131.38;5068985;28;20251;-79
2023/06/24 03:39:42;;;;;;;10.65;9.65;;;;;;;20.57;100.00;64130.81;5068180;28;20216;-78
2023/06/24 03:42:10;;;;;;;12.77;9.98;;;;;;;20.65;100.00;64142.28;5068247;28;20212;-78
2023/06/24 03:44:37;;;;;;;12.85;9.95;;;;;;;20.74;100.00;64148.03;5074758;28;20252;-77
2023/06/24 03:47:05;;;;;;;11.10;9.88;;;;;;;20.81;100.00;64155.88;5078050;28;20276;-78
2023/06/24 03:49:32;;;;;;;11.93;9.68;;;;;;;20.94;100.00;64172.03;5067946;28;20208;-78
2023/06/24 03:51:59;;;;;;;15.05;9.65;;;;;;;21.03;100.00;64176.28;5069545;28;20240;-77
2023/06/24 03:54:26;;;;;;;10.82;9.80;;;;;;;21.12;100.00;64188.25;5073539;28;20197;-78
2023/06/24 03:56:53;;;;;;;13.80;10.23;;;;;;;21.21;100.00;64200.25;5069191;28;20225;-78
2023/06/24 03:59:20;;;;;;;12.65;10.95;;;;;;;21.34;100.00;64216.44;5070621;28;20228;-77
2023/06/24 04:01:47;;;;;;;11.32;10.05;;;;;;;21.40;100.00;64211.78;5081083;28;20544;-78
2023/06/24 04:04:15;;;;;;;12.00;10.48;;;;;;;21.49;100.00;64232.09;5078036;28;20197;-79
2023/06/24 04:06:42;;;;;;;10.45;9.38;;;;;;;21.58;100.00;64238.38;5070367;28;20225;-78
2023/06/24 04:09:10;;;;;;;11.98;10.20;;;;;;;21.68;100.00;64246.75;5075063;28;20196;-78
2023/06/24 04:11:37;;;;;;;13.32;10.25;;;;;;;21.74;100.00;64247.31;5082774;28;20224;-79
2023/06/24 04:14:06;;;;;;;11.57;10.38;;;;;;;21.86;100.00;64265.06;5068267;28;20192;-77
2023/06/24 04:16:34;;;;;;;12.63;10.73;;;;;;;21.94;100.00;64273.44;5068803;28;20221;-77
2023/06/24 04:19:01;;;;;;;12.52;11.25;;;;;;;21.79;100.00;64257.75;5078971;28;20201;-78
2023/06/24 04:21:29;;;;;;;11.95;10.85;;;;;;;21.94;100.00;64270.84;5068676;28;20223;-78
2023/06/24 04:23:56;;;;;;;12.45;11.07;;;;;;;22.07;100.00;64286.50;5070819;28;20238;-78
2023/06/24 04:26:24;;;;;;;14.18;11.23;;;;;;;22.14;100.00;64291.72;5078570;28;20283;-78
2023/06/24 04:28:51;;;;;;;12.02;10.73;;;;;;;22.30;100.00;64313.13;5077294;28;20227;-78
2023/06/24 04:31:18;;;;;;;11.50;10.30;;;;;;;22.46;100.00;64332.97;5088195;28;20220;-77
2023/06/24 04:33:44;;;;;;;12.38;11.18;;;;;;;22.50;100.00;64334.53;5083998;28;20484;-78
2023/06/24 04:36:11;;;;;;;13.85;10.88;;;;;;;22.60;100.00;64342.44;5080707;28;20236;-77
2023/06/24 04:38:40;;;;;;;12.27;10.85;;;;;;;22.77;100.00;64354.50;5085119;28;20505;-78
2023/06/24 04:41:07;;;;;;;11.93;10.73;;;;;;;22.93;100.00;64376.44;5075290;28;20264;-76
2023/06/24 04:43:35;;;;;;;12.15;9.85;;;;;;;23.03;100.00;64386.34;5088444;28;20207;-77
2023/06/24 04:46:02;;;;;;;11.70;10.48;;;;;;;23.14;100.00;64395.78;5078761;28;20212;-77
2023/06/24 04:48:29;;;;;;;15.55;10.88;;;;;;;22.84;100.00;64364.94;5066101;28;20501;-75
2023/06/24 04:50:57;;;;;;;12.65;11.45;;;;;;;22.76;100.00;64358.66;5075207;28;20212;-80
2023/06/24 04:53:24;;;;;;;11.48;10.38;;;;;;;22.85;100.00;64370.66;5064938;28;20219;-76
2023/06/24 04:55:53;;;;;;;15.13;10.95;;;;;;;22.85;100.00;64373.25;5068771;28;20231;-76
2023/06/24 04:58:20;;;;;;;12.73;10.43;;;;;;;22.95;100.00;64378.00;5069296;28;20216;-77
2023/06/24 05:00:47;;;;;;;14.55;10.40;;;;;;;23.03;100.00;64383.75;5065253;28;20282;-76
2023/06/24 05:03:14;;;;;;;12.02;10.75;;;;;;;23.11;100.00;64402.53;5076096;28;20197;-77
2023/06/24 05:05:41;;;;;;;13.80;10.63;;;;;;;23.04;100.00;64387.41;5070318;28;20546;-76
2023/06/24 05:08:09;;;;;;;14.25;11.63;;;;;;;23.04;100.00;64390.00;5063201;28;20203;-79
2023/06/24 05:10:37;;;;;;;11.20;9.70;;;;;;;23.09;100.00;64393.16;5071059;28;20560;-77
2023/06/24 05:13:05;;;;;;;10.38;9.38;;;;;;;23.06;100.00;64394.69;5070629;28;20296;-78
2023/06/24 05:15:32;;;;;;;10.52;9.43;;;;;;;23.10;100.00;64396.81;5066014;28;20219;-78
2023/06/24 05:17:59;;;;;;;11.65;10.55;;;;;;;23.15;100.00;64401.50;5069727;28;20219;-78
2023/06/24 05:20:27;;;;;;;11.95;10.30;;;;;;;23.26;100.00;64413.53;5067017;28;20236;-78
2023/06/24 05:22:56;;;;;;;15.00;10.82;;;;;;;23.09;100.00;64390.03;5066367;28;20223;-78
2023/06/24 05:25:23;;;;;;;13.07;11.07;;;;;;;23.19;100.00;64400.50;5068343;28;20212;-77
2023/06/24 05:27:50;;;;;;;13.75;11.75;;;;;;;23.19;100.00;64403.63;5065514;28;20208;-77
2023/06/24 05:30:19;;;;;;;12.93;10.45;;;;;;;23.45;100.00;64427.72;5065946;28;20569;-79
2023/06/24 05:32:46;;;;;;;12.45;10.45;;;;;;;23.54;100.00;64440.25;5070198;28;20212;-76
2023/06/24 05:35:13;;;;;;;11.10;9.57;;;;;;;23.59;100.00;64442.88;5066267;28;20254;-78
2023/06/24 05:37:41;;;;;;;12.02;10.75;;;;;;;23.76;100.00;64470.56;5087248;28;20278;-79
2023/06/24 05:40:09;;;;;;;12.40;10.45;;;;;;;23.95;100.00;64482.63;5077593;28;20232;-78
2023/06/24 05:42:36;;;;;;;11.13;9.85;;;;;;;23.81;100.00;64465.38;5066112;28;20352;-79
2023/06/24 05:45:08;;;;;;;14.05;9.85;;;;;;;23.82;100.00;64474.75;5075757;28;20200;-78
2023/06/24 05:47:40;;;;;;;11.45;10.20;;;;;;;24.05;100.00;64495.19;5087734;28;20185;-80
2023/06/24 05:50:07;;;;;;;13.85;10.15;;;;;;;24.05;99.21;64493.13;5068797;28;20246;-78
2023/06/24 05:52:34;;;;;;;11.30;10.07;;;;;;;24.14;98.48;64502.53;5067815;28;20203;-79
2023/06/24 05:55:01;;;;;;;11.20;9.95;;;;;;;24.39;95.86;64530.78;5073431;28;20203;-78
2023/06/24 05:57:31;;;;;;;14.80;11.35;;;;;;;24.36;92.88;64525.56;5084147;28;20223;-78
2023/06/24 06:00:03;;;;;;;10.60;9.68;;;;;;;24.39;94.13;64528.19;5069077;28;20244;-79
2023/06/24 06:02:32;;;;;;;10.95;9.85;;;;;;;24.58;92.79;64551.22;5065641;28;20558;-78
2023/06/24 06:05:01;;;;;;;13.13;11.45;;;;;;;24.51;92.01;64540.75;5066269;28;20394;-78
2023/06/24 06:07:28;;;;;;;14.93;11.23;;;;;;;24.52;92.82;64539.72;5068017;28;20398;-77
2023/06/24 06:09:55;;;;;;;12.60;11.40;;;;;;;24.44;93.27;64536.53;5065208;28;20219;-78
2023/06/24 06:12:23;;;;;;;13.15;11.82;;;;;;;24.39;92.10;64533.38;5066451;28;20263;-78
2023/06/24 06:14:53;;;;;;;12.02;10.82;;;;;;;24.59;90.43;64549.13;5067980;28;20376;-78
2023/06/24 06:17:20;;;;;;;12.20;10.82;;;;;;;24.56;92.76;64545.97;5067245;28;20291;-78
2023/06/24 06:19:47;;;;;;;11.70;10.55;;;;;;;24.89;91.04;64581.09;5066814;28;20243;-77
2023/06/24 06:22:15;;;;;;;11.73;10.63;;;;;;;25.05;90.36;64597.84;5066008;28;20220;-78
2023/06/24 06:24:43;;;;;;;11.23;10.23;;;;;;;25.24;87.63;64621.91;5067173;28;20267;-77
2023/06/24 06:27:11;;;;;;;11.63;10.52;;;;;;;25.25;87.06;64620.38;5065937;28;20247;-79
2023/06/24 06:29:38;;;;;;;11.57;10.48;;;;;;;25.23;84.43;64618.78;5068095;28;20224;-78
2023/06/24 06:32:06;;;;;;;12.38;11.15;;;;;;;25.07;88.92;64599.44;5065689;28;20221;-78
2023/06/24 06:34:33;;;;;;;12.52;10.88;;;;;;;24.99;87.52;64588.44;5066167;28;20192;-78
2023/06/24 06:37:01;;;;;;;13.43;11.75;;;;;;;25.00;84.87;64590.00;5065627;28;20528;-78
2023/06/24 06:39:29;;;;;;;15.75;11.98;;;;;;;24.91;88.03;64583.19;5073048;28;20212;-78
2023/06/24 06:41:56;;;;;;;12.55;11.25;;;;;;;25.01;89.72;64593.13;5086523;28;20291;-79
2023/06/24 06:44:24;;;;;;;12.88;10.93;;;;;;;24.91;87.46;64582.66;5081626;28;20192;-77
2023/06/24 06:46:51;;;;;;;13.90;11.38;;;;;;;25.08;86.32;64600.47;5067572;28;20281;-81
2023/06/24 06:49:18;;;;;;;13.52;11.05;;;;;;;25.09;87.08;64601.53;5066427;28;20204;-80
2023/06/24 06:51:45;;;;;;;14.68;11.80;;;;;;;25.26;83.39;64618.81;5066007;28;20291;-79
2023/06/24 06:54:12;;;;;;;12.45;11.15;;;;;;;25.31;81.20;64626.66;5064730;28;20204;-77
2023/06/24 06:56:40;;;;;;;13.07;11.82;;;;;;;25.06;83.87;64598.38;5065102;28;20229;-79
2023/06/24 06:59:07;;;;;;;14.00;11.35;;;;;;;24.72;86.43;64560.69;5068154;28;20192;-77
2023/06/24 07:01:34;;;;;;;14.85;12.38;;;;;;;25.00;84.84;64592.63;5067505;28;20289;-80
2023/06/24 07:04:01;;;;;;;14.77;12.68;;;;;;;25.09;82.88;64602.03;5066328;28;20200;-79
2023/06/24 07:06:28;;;;;;;13.63;11.85;;;;;;;25.03;83.65;64597.84;5071609;28;20220;-78
2023/06/24 07:08:55;;;;;;;12.93;11.60;;;;;;;25.18;83.98;64613.03;5082267;28;20192;-78
2023/06/24 07:11:22;;;;;;;14.93;13.05;;;;;;;25.14;84.69;64606.75;5089030;28;20220;-79
2023/06/24 07:13:52;;;;;;;18.25;13.48;;;;;;;25.25;83.34;64617.75;5085878;28;20204;-78
2023/06/24 07:16:19;;;;;;;15.73;13.02;;;;;;;25.20;83.91;64613.03;5069317;28;20532;-77
2023/06/24 07:18:46;;;;;;;16.30;12.60;;;;;;;25.23;84.36;64610.44;5072015;28;20255;-78
2023/06/24 07:21:13;;;;;;;13.30;12.00;;;;;;;25.36;83.33;64629.28;5084960;28;20298;-77
2023/06/24 07:23:41;;;;;;;16.33;13.25;;;;;;;25.62;83.72;64659.16;5092695;28;20212;-76
2023/06/24 07:26:10;;;;;;;16.15;13.10;;;;;;;25.73;81.94;64670.69;5091011;28;20224;-78
2023/06/24 07:28:37;;;;;;;14.55;13.13;;;;;;;25.88;83.29;64681.19;5073535;28;20200;-78
2023/06/24 07:31:06;;;;;;;14.80;13.32;;;;;;;26.03;81.54;64696.91;5068801;28;20396;-81
2023/06/24 07:33:33;;;;;;;18.08;13.02;;;;;;;26.17;77.03;64714.75;5068132;28;20498;-78
2023/06/24 07:36:00;;;;;;;13.57;12.13;;;;;;;26.20;76.72;64712.66;5070538;28;20251;-78
2023/06/24 07:38:29;;;;;;;14.05;12.15;;;;;;;26.28;77.67;64722.59;5072681;28;20494;-79
2023/06/24 07:40:57;;;;;;;14.70;13.13;;;;;;;26.23;73.74;64721.00;5070406;28;20228;-80
2023/06/24 07:43:24;;;;;;;16.10;12.20;;;;;;;26.45;74.38;64743.03;5084011;28;20554;-79
2023/06/24 07:45:51;;;;;;;13.48;12.13;;;;;;;26.60;75.14;64756.16;5088561;28;20220;-79
2023/06/24 07:48:19;;;;;;;18.23;12.75;;;;;;;26.55;75.52;64756.13;5088873;28;20516;-78
2023/06/24 07:50:49;;;;;;;13.98;12.50;;;;;;;26.51;74.92;64754.56;5090526;28;20220;-79
2023/06/24 07:53:16;;;;;;;14.55;11.57;;;;;;;26.44;74.85;64747.22;5090983;28;20200;-78
2023/06/24 07:55:43;;;;;;;14.30;12.80;;;;;;;26.66;75.19;64759.84;5075140;28;20547;-79
2023/06/24 07:58:10;;;;;;;13.48;11.85;;;;;;;26.82;75.07;64779.78;5069167;28;20192;-78
2023/06/24 08:00:38;;;;;;;15.25;12.50;;;;;;;26.96;71.88;64796.53;5074196;28;20253;-78
2023/06/24 08:03:06;;;;;;;13.10;11.90;;;;;;;26.83;76.63;64785.53;5087826;28;20524;-78
2023/06/24 08:05:35;;;;;;;12.93;11.35;;;;;;;27.04;71.01;64804.94;5070833;28;20224;-79
2023/06/24 08:08:02;;;;;;;12.38;11.13;;;;;;;26.79;71.07;64778.72;5069958;28;20227;-78
2023/06/24 08:10:28;;;;;;;13.43;11.90;;;;;;;26.92;68.48;64794.97;5068255;28;20251;-77
2023/06/24 08:12:56;;;;;;;14.73;12.05;;;;;;;26.87;68.98;64787.13;5071484;28;20202;-79
2023/06/24 08:15:23;;;;;;;12.20;10.82;;;;;;;27.14;72.71;64812.81;5089908;28;20216;-78
2023/06/24 08:17:53;;;;;;;13.00;11.25;;;;;;;27.38;72.80;64843.25;5090426;28;20489;-81
2023/06/24 08:20:23;;;;;;;11.52;10.32;;;;;;;27.65;69.52;64868.44;5069302;28;20236;-78
2023/06/24 08:22:52;;;;;;;13.30;11.07;;;;;;;27.89;68.76;64891.00;5068068;28;20215;-77
2023/06/24 08:25:19;;;;;;;13.00;11.40;;;;;;;27.93;64.18;64895.22;5069211;28;20359;-80
2023/06/24 08:27:47;;;;;;;13.60;11.80;;;;;;;27.97;65.03;64899.44;5067020;28;20204;-77
2023/06/24 08:30:15;;;;;;;14.82;11.77;;;;;;;28.21;65.76;64929.88;5068832;28;20204;-79
2023/06/24 08:32:43;;;;;;;13.23;11.25;;;;;;;28.26;64.67;64933.03;5072020;28;20498;-78
2023/06/24 08:35:10;;;;;;;13.15;11.93;;;;;;;28.48;65.08;64952.44;5067467;28;20192;-78
2023/06/24 08:37:38;;;;;;;13.23;11.52;;;;;;;28.67;62.42;64975.03;5080770;28;20207;-77
2023/06/24 08:40:08;;;;;;;13.40;11.77;;;;;;;28.77;60.82;64988.19;5086046;28;20208;-79
2023/06/24 08:42:35;;;;;;;13.18;11.95;;;;;;;28.63;64.29;64965.59;5072164;28;20228;-77
2023/06/24 08:45:03;;;;;;;13.35;11.82;;;;;;;28.53;66.69;64957.72;5068650;28;20268;-77
2023/06/24 08:47:32;;;;;;;12.60;11.50;;;;;;;28.74;66.94;64979.75;5089224;28;20524;-80
2023/06/24 08:50:04;;;;;;;13.43;12.02;;;;;;;28.78;59.64;64987.13;5070365;28;20425;-78
2023/06/24 08:52:35;;;;;;;11.73;10.63;;;;;;;28.70;58.70;64976.09;5067025;28;20256;-78
2023/06/24 08:55:03;;;;;;;13.55;11.13;;;;;;;28.66;62.64;64979.22;5075249;28;20263;-77
2023/06/24 08:57:31;;;;;;;14.70;12.63;;;;;;;28.70;61.65;64983.44;5085410;28;20196;-80
2023/06/24 08:59:59;;;;;;;12.95;10.95;;;;;;;28.95;62.65;65001.81;5085191;28;20502;-78
2023/06/24 09:02:25;;;;;;;12.05;10.77;;;;;;;29.04;63.22;65011.28;5067842;28;20295;-78
2023/06/24 09:04:53;;;;;;;12.90;11.00;;;;;;;29.10;59.14;65020.22;5083017;28;20200;-79
2023/06/24 09:07:29;;;;;;;12.43;11.32;;;;;;;29.09;58.70;65016.53;5077668;28;20274;-77
2023/06/24 09:09:56;;;;;;;12.35;10.63;;;;;;;29.25;61.21;65038.63;5079211;28;20238;-79
2023/06/24 09:12:26;;;;;;;13.30;11.40;;;;;;;29.21;58.45;65034.41;5069658;28;20231;-80
2023/06/24 09:14:54;;;;;;;11.63;10.57;;;;;;;29.41;60.50;65050.16;5067259;28;20212;-78
2023/06/24 09:17:22;;;;;;;11.38;10.18;;;;;;;29.54;56.73;65069.59;5069050;28;20221;-78
2023/06/24 09:19:49;;;;;;;11.45;10.15;;;;;;;29.58;58.85;65073.28;5067963;28;20249;-77
2023/06/24 09:22:18;;;;;;;11.43;10.43;;;;;;;29.77;56.13;65090.13;5076063;28;20224;-81
2023/06/24 09:24:46;;;;;;;11.13;10.13;;;;;;;29.91;57.31;65108.00;5086518;28;20318;-78
2023/06/24 09:27:15;;;;;;;10.88;9.88;;;;;;;29.75;52.39;65093.81;5085998;28;20216;-77
2023/06/24 09:29:43;;;;;;;11.25;10.07;;;;;;;29.47;53.24;65059.63;5088397;28;20200;-77
2023/06/24 09:32:12;;;;;;;13.25;9.35;;;;;;;29.38;54.38;65052.28;5071462;28;20425;-79
2023/06/24 09:34:40;;;;;;;11.60;10.50;;;;;;;29.32;54.21;65049.13;5068210;28;20331;-79
2023/06/24 09:37:08;;;;;;;10.82;9.82;;;;;;;29.52;55.54;65064.38;5067294;28;20217;-78
2023/06/24 09:39:40;;;;;;;13.88;9.95;;;;;;;29.67;56.88;65085.41;5069486;28;20262;-78
2023/06/24 09:42:07;;;;;;;12.43;11.13;;;;;;;29.77;56.25;65088.03;5066554;28;20232;-78
2023/06/24 09:44:35;;;;;;;12.38;10.02;;;;;;;29.48;53.26;65060.16;5066386;28;20205;-77
2023/06/24 09:47:02;;;;;;;11.13;10.07;;;;;;;28.80;56.13;64989.22;5067131;28;20216;-77
2023/06/24 09:49:31;;;;;;;13.30;11.23;;;;;;;28.97;54.92;65007.09;5070546;28;20197;-76
2023/06/24 09:52:01;;;;;;;11.07;9.98;;;;;;;29.06;56.44;65013.91;5065950;28;20312;-76
2023/06/24 09:54:29;;;;;;;17.00;10.23;;;;;;;29.17;61.88;65032.81;5065894;28;20228;-75
2023/06/24 09:57:00;;;;;;;10.65;9.55;;;;;;;29.25;58.01;65036.50;5065957;28;20231;-77
2023/06/24 09:59:28;;;;;;;10.65;9.57;;;;;;;29.50;57.72;65065.41;5075244;28;20201;-78
2023/06/24 10:01:57;;;;;;;11.88;9.93;;;;;;;29.63;53.66;65081.19;5074485;28;20232;-76
2023/06/24 10:04:26;;;;;;;10.32;9.43;;;;;;;29.69;53.57;65081.72;5074649;28;20200;-78
2023/06/24 10:06:56;;;;;;;11.85;9.10;;;;;;;29.92;55.31;65103.28;5084736;28;20242;-77
2023/06/24 10:09:23;;;;;;;10.35;9.18;;;;;;;30.13;53.49;65122.72;5078539;28;20264;-77
2023/06/24 10:11:50;;;;;;;10.57;9.40;;;;;;;30.22;54.68;65137.97;5068507;28;20271;-78
2023/06/24 10:14:18;;;;;;;10.20;9.15;;;;;;;30.33;54.82;65143.75;5065648;28;20215;-77
2023/06/24 10:16:46;;;;;;;14.45;9.20;;;;;;;30.48;53.34;65164.78;5064690;28;20232;-80
2023/06/24 10:19:21;;;;;;;10.82;9.75;;;;;;;30.68;53.83;65185.31;5068588;28;20192;-78
2023/06/24 10:21:52;;;;;;;9.55;8.75;;;;;;;30.94;53.13;65213.19;5066600;28;20544;-79
2023/06/24 10:24:37;;;;;;;9.93;9.00;;;;;;;31.13;51.09;65235.81;5066107;28;20188;-79
2023/06/24 10:27:05;;;;;;;10.57;9.50;;;;;;;31.00;49.50;65221.59;5063928;28;20222;-76
2023/06/24 10:29:33;;;;;;;9.77;8.85;;;;;;;30.82;49.90;65205.84;5065526;28;20234;-77
2023/06/24 10:32:04;;;;;;;9.77;8.90;;;;;;;30.59;52.52;65176.38;5065459;28;20217;-77
2023/06/24 10:34:34;;;;;;;10.80;9.82;;;;;;;30.79;52.50;65197.41;5072961;28;20196;-77
2023/06/24 10:37:03;;;;;;;8.70;7.90;;;;;;;30.82;49.12;65200.59;5077302;28;20225;-76
2023/06/24 10:39:41;;;;;;;9.90;9.00;;;;;;;30.84;50.31;65202.66;5064816;28;20201;-78
2023/06/24 10:42:27;;;;;;;9.48;8.55;;;;;;;30.94;48.64;65210.03;5066174;28;20275;-76
2023/06/24 10:44:55;;;;;;;9.40;8.25;;;;;;;30.79;50.30;65196.88;5084711;28;20267;-77
2023/06/24 10:47:24;;;;;;;8.45;7.57;;;;;;;30.48;47.41;65167.41;5081137;28;20537;-77
2023/06/24 10:49:51;;;;;;;8.68;7.95;;;;;;;30.40;47.25;65156.38;5065273;28;20200;-78
2023/06/24 10:52:21;;;;;;;8.50;7.90;;;;;;;30.36;47.45;65157.97;5070186;28;20219;-77
2023/06/24 10:54:51;;;;;;;10.85;9.15;;;;;;;30.46;49.34;65163.22;5086718;28;20196;-76
2023/06/24 10:57:24;;;;;;;9.10;8.38;;;;;;;30.35;50.22;65151.13;5084650;28;20220;-77
2023/06/24 10:59:52;;;;;;;8.90;8.15;;;;;;;30.69;52.37;65188.97;5090680;28;20210;-78
2023/06/24 11:02:20;;;;;;;8.02;7.32;;;;;;;31.01;51.17;65220.56;5086380;28;20232;-76
2023/06/24 11:04:55;;;;;;;8.10;7.43;;;;;;;31.30;49.05;65248.44;5076359;28;20196;-78
2023/06/24 11:07:24;;;;;;;7.85;7.13;;;;;;;31.24;46.70;65246.84;5077007;28;20239;-78
2023/06/24 11:09:59;;;;;;;8.13;7.45;;;;;;;31.31;47.28;65251.59;5073288;28;20219;-78
2023/06/24 11:12:32;;;;;;;8.80;7.50;;;;;;;31.47;47.31;65268.97;5074882;28;20221;-78
2023/06/24 11:15:06;;;;;;;8.05;7.32;;;;;;;31.77;48.65;65300.03;5072971;28;20364;-78
2023/06/24 11:17:34;;;;;;;6.93;6.30;;;;;;;31.92;43.92;65315.31;5072978;28;20185;-78
2023/06/24 11:20:07;;;;;;;7.72;7.03;;;;;;;31.92;45.11;65318.47;5083263;28;20207;-77
2023/06/24 11:22:34;;;;;;;9.10;7.50;;;;;;;32.17;42.40;65344.28;5080804;28;20216;-78
2023/06/24 11:25:05;;;;;;;8.95;7.82;;;;;;;32.13;45.34;65343.22;5092169;28;20192;-77